GEC8260 KJFK-EDDF
Flight info
| Callsign | GEC8260 |
|---|---|
| Flight time | N/A |
| Altitude | 33000 |
| Route | MERIT DCT HFD DCT PUT DCT ALLEX DCT 47N060W DCT VINSI DCT YQX DCT ELSIR/M084F340 DCT 50N050W 52N040W 53N030W 53N020W DCT MALOT DCT GISTI/N0484F350 DCT ENJEX DCT ADHAV DCT AXNEF DCT ZIPWE DCT OZZIL DCT SAWPE Q63 CPT UL9 BIG L607 KONAN DCT KOK UL607 FERDI DCT REMBA DCT SPI T180 NIVNU T847 IMCOM IMCOM2C |
| Aircraft | B77L/H-SDE1E2E3FGHIJ2J3J4J5M1RWXY/LB1D1 |
Departure
| Time | 2026-05-01 14:26 |
|---|---|
| Airport | John F. Kennedy International Airport (KJFK) |
Arrival
| Time | N/A |
|---|---|
| Airport | Frankfurt Main Airport (EDDF) |
| Time | Latitude | Longitude | Altitude | Speed | Heading |
|---|---|---|---|---|---|
| 2026-05-01 14:12 | 40.65573 | -73.80082 | 24 ft | 1 kts | 194° |
| 2026-05-01 14:13 | 40.65577 | -73.80081 | 24 ft | 3 kts | 194° |
| 2026-05-01 14:14 | 40.65603 | -73.80072 | 27 ft | 4 kts | 194° |
| 2026-05-01 14:14 | 40.65626 | -73.80064 | 28 ft | 4 kts | 214° |
| 2026-05-01 14:14 | 40.65637 | -73.80038 | 28 ft | 4 kts | 261° |
| 2026-05-01 14:14 | 40.65641 | -73.80004 | 30 ft | 4 kts | 267° |
| 2026-05-01 14:15 | 40.65641 | -73.79969 | 30 ft | 4 kts | 265° |
| 2026-05-01 14:15 | 40.65646 | -73.79935 | 30 ft | 4 kts | 257° |
| 2026-05-01 14:15 | 40.65650 | -73.79900 | 29 ft | 4 kts | 264° |
| 2026-05-01 14:15 | 40.65653 | -73.79873 | 28 ft | 0 kts | 254° |
| 2026-05-01 14:18 | 40.65651 | -73.79877 | 28 ft | 3 kts | 241° |
| 2026-05-01 14:18 | 40.65596 | -73.79882 | 27 ft | 15 kts | 179° |
| 2026-05-01 14:18 | 40.65502 | -73.79881 | 27 ft | 24 kts | 179° |
| 2026-05-01 14:19 | 40.65279 | -73.79875 | 27 ft | 24 kts | 167° |
| 2026-05-01 14:19 | 40.65130 | -73.79778 | 27 ft | 24 kts | 150° |
| 2026-05-01 14:19 | 40.64976 | -73.79705 | 29 ft | 24 kts | 181° |
| 2026-05-01 14:19 | 40.64809 | -73.79700 | 24 ft | 24 kts | 170° |
| 2026-05-01 14:20 | 40.64670 | -73.79587 | 26 ft | 24 kts | 144° |
| 2026-05-01 14:20 | 40.64350 | -73.79491 | 28 ft | 24 kts | 183° |
| 2026-05-01 14:20 | 40.64183 | -73.79502 | 28 ft | 24 kts | 183° |
| 2026-05-01 14:21 | 40.64015 | -73.79506 | 28 ft | 24 kts | 168° |
| 2026-05-01 14:21 | 40.63910 | -73.79342 | 28 ft | 24 kts | 119° |
| 2026-05-01 14:21 | 40.63817 | -73.79137 | 29 ft | 30 kts | 121° |
| 2026-05-01 14:22 | 40.63583 | -73.78621 | 26 ft | 31 kts | 121° |
| 2026-05-01 14:22 | 40.63475 | -73.78386 | 28 ft | 30 kts | 121° |
| 2026-05-01 14:22 | 40.63370 | -73.78151 | 27 ft | 30 kts | 121° |
| 2026-05-01 14:22 | 40.63333 | -73.77949 | 27 ft | 13 kts | 79° |
| 2026-05-01 14:23 | 40.63325 | -73.77832 | 27 ft | 13 kts | 117° |
| 2026-05-01 14:23 | 40.63273 | -73.77721 | 28 ft | 17 kts | 122° |
| 2026-05-01 14:23 | 40.63173 | -73.77512 | 26 ft | 38 kts | 122° |
| 2026-05-01 14:23 | 40.63044 | -73.77220 | 28 ft | 16 kts | 126° |
| 2026-05-01 14:24 | 40.62948 | -73.77220 | 26 ft | 16 kts | 212° |
| 2026-05-01 14:24 | 40.62862 | -73.77308 | 27 ft | 15 kts | 249° |
| 2026-05-01 14:24 | 40.62898 | -73.77397 | 28 ft | 11 kts | 302° |
| 2026-05-01 14:24 | 40.62979 | -73.77576 | 28 ft | 43 kts | 301° |
| 2026-05-01 14:25 | 40.63240 | -73.78149 | 31 ft | 102 kts | 301° |
| 2026-05-01 14:25 | 40.63691 | -73.79144 | 31 ft | 149 kts | 301° |
| 2026-05-01 14:25 | 40.64295 | -73.80433 | 103 ft | 175 kts | 302° |
| 2026-05-01 14:25 | 40.64934 | -73.81829 | 447 ft | 179 kts | 302° |
| 2026-05-01 14:26 | 40.65531 | -73.83256 | 912 ft | 179 kts | 300° |
| 2026-05-01 14:26 | 40.65171 | -73.86501 | 1384 ft | 211 kts | 222° |
| 2026-05-01 14:26 | 40.63887 | -73.87416 | 1864 ft | 216 kts | 200° |
| 2026-05-01 14:27 | 40.62414 | -73.87931 | 2270 ft | 224 kts | 195° |
| 2026-05-01 14:27 | 40.60872 | -73.88412 | 2637 ft | 231 kts | 194° |
| 2026-05-01 14:27 | 40.59259 | -73.88828 | 3031 ft | 242 kts | 180° |
| 2026-05-01 14:28 | 40.56088 | -73.86924 | 3864 ft | 257 kts | 138° |
| 2026-05-01 14:28 | 40.54877 | -73.85126 | 4250 ft | 266 kts | 120° |
| 2026-05-01 14:28 | 40.54139 | -73.82950 | 5002 ft | 258 kts | 98° |
| 2026-05-01 14:28 | 40.54168 | -73.80603 | 5224 ft | 267 kts | 68° |
| 2026-05-01 14:29 | 40.55099 | -73.78549 | 5680 ft | 264 kts | 36° |
| 2026-05-01 14:29 | 40.56727 | -73.77453 | 5969 ft | 263 kts | 13° |
| 2026-05-01 14:30 | 40.61586 | -73.74383 | 7476 ft | 270 kts | 28° |
| 2026-05-01 14:30 | 40.63170 | -73.73024 | 7914 ft | 272 kts | 27° |
| 2026-05-01 14:30 | 40.64762 | -73.71679 | 8410 ft | 272 kts | 26° |
| 2026-05-01 14:31 | 40.67957 | -73.69059 | 9390 ft | 273 kts | 24° |
| 2026-05-01 14:31 | 40.69575 | -73.67762 | 9862 ft | 274 kts | 24° |
| 2026-05-01 14:31 | 40.71217 | -73.66456 | 9971 ft | 279 kts | 24° |
| 2026-05-01 14:31 | 40.72881 | -73.65143 | 10049 ft | 281 kts | 24° |
| 2026-05-01 14:32 | 40.74612 | -73.63789 | 10234 ft | 299 kts | 24° |
| 2026-05-01 14:32 | 40.75820 | -73.62849 | 10343 ft | 312 kts | 24° |
| 2026-05-01 14:32 | 40.78430 | -73.60819 | 10534 ft | 339 kts | 25° |
| 2026-05-01 14:32 | 40.79800 | -73.59753 | 10649 ft | 351 kts | 25° |
| 2026-05-01 14:33 | 40.81945 | -73.58078 | 11019 ft | 365 kts | 25° |
| 2026-05-01 14:33 | 40.84894 | -73.55769 | 11681 ft | 378 kts | 25° |
| 2026-05-01 14:33 | 40.87182 | -73.53975 | 12316 ft | 386 kts | 25° |
| 2026-05-01 14:33 | 40.89512 | -73.52148 | 12981 ft | 393 kts | 25° |
| 2026-05-01 14:34 | 40.91886 | -73.50286 | 13598 ft | 401 kts | 25° |
| 2026-05-01 14:34 | 40.94308 | -73.48387 | 14168 ft | 408 kts | 25° |
| 2026-05-01 14:34 | 40.95926 | -73.47117 | 14612 ft | 411 kts | 25° |
| 2026-05-01 14:34 | 40.98391 | -73.45180 | 15300 ft | 414 kts | 25° |
| 2026-05-01 14:35 | 41.00877 | -73.43226 | 15979 ft | 418 kts | 25° |
| 2026-05-01 14:35 | 41.03389 | -73.41251 | 16616 ft | 422 kts | 25° |
| 2026-05-01 14:35 | 41.06760 | -73.38599 | 17443 ft | 428 kts | 25° |
| 2026-05-01 14:35 | 41.09332 | -73.36574 | 18070 ft | 433 kts | 25° |
| 2026-05-01 14:36 | 41.11087 | -73.35190 | 18463 ft | 436 kts | 25° |
| 2026-05-01 14:36 | 41.13706 | -73.33124 | 18985 ft | 440 kts | 25° |
| 2026-05-01 14:36 | 41.16349 | -73.31038 | 19505 ft | 444 kts | 25° |
| 2026-05-01 14:36 | 41.18983 | -73.28956 | 20039 ft | 448 kts | 25° |
| 2026-05-01 14:37 | 41.21668 | -73.26830 | 20579 ft | 452 kts | 25° |
| 2026-05-01 14:37 | 41.24385 | -73.24678 | 21092 ft | 456 kts | 25° |
| 2026-05-01 14:37 | 41.27127 | -73.22504 | 21589 ft | 461 kts | 26° |
| 2026-05-01 14:37 | 41.29893 | -73.20309 | 22074 ft | 465 kts | 25° |
| 2026-05-01 14:38 | 41.32684 | -73.18093 | 22566 ft | 470 kts | 25° |
| 2026-05-01 14:38 | 41.35458 | -73.15749 | 23011 ft | 477 kts | 32° |
| 2026-05-01 14:38 | 41.37989 | -73.12817 | 23515 ft | 487 kts | 42° |
| 2026-05-01 14:38 | 41.40169 | -73.09409 | 24008 ft | 493 kts | 51° |
| 2026-05-01 14:39 | 41.42011 | -73.05530 | 24416 ft | 498 kts | 57° |
| 2026-05-01 14:39 | 41.43738 | -73.01507 | 24800 ft | 502 kts | 58° |
| 2026-05-01 14:39 | 41.45468 | -72.97441 | 25196 ft | 506 kts | 58° |
| 2026-05-01 14:39 | 41.47219 | -72.93355 | 25580 ft | 509 kts | 58° |
| 2026-05-01 14:40 | 41.48994 | -72.89261 | 25998 ft | 511 kts | 57° |
| 2026-05-01 14:40 | 41.50790 | -72.85149 | 26395 ft | 514 kts | 57° |
| 2026-05-01 14:40 | 41.52603 | -72.81016 | 26789 ft | 518 kts | 57° |
| 2026-05-01 14:40 | 41.54426 | -72.76864 | 27142 ft | 521 kts | 57° |
| 2026-05-01 14:41 | 41.56266 | -72.72670 | 27539 ft | 524 kts | 57° |
| 2026-05-01 14:41 | 41.58086 | -72.68507 | 27907 ft | 528 kts | 57° |
| 2026-05-01 14:41 | 41.59938 | -72.64265 | 28259 ft | 531 kts | 57° |
| 2026-05-01 14:41 | 41.61803 | -72.59988 | 28588 ft | 534 kts | 57° |
| 2026-05-01 14:42 | 41.63675 | -72.55686 | 28928 ft | 537 kts | 57° |
| 2026-05-01 14:42 | 41.65569 | -72.51368 | 29234 ft | 540 kts | 57° |
| 2026-05-01 14:42 | 41.67504 | -72.47056 | 29592 ft | 542 kts | 56° |
| 2026-05-01 14:42 | 41.69459 | -72.42745 | 30025 ft | 541 kts | 56° |
| 2026-05-01 14:43 | 41.71411 | -72.38444 | 30419 ft | 540 kts | 56° |
| 2026-05-01 14:43 | 41.73328 | -72.34204 | 30784 ft | 539 kts | 56° |
| 2026-05-01 14:43 | 41.75259 | -72.29915 | 31143 ft | 539 kts | 57° |
| 2026-05-01 14:43 | 41.77192 | -72.25605 | 31472 ft | 539 kts | 57° |
| 2026-05-01 14:44 | 41.79118 | -72.21296 | 31786 ft | 539 kts | 57° |
| 2026-05-01 14:44 | 41.82959 | -72.12684 | 32491 ft | 538 kts | 57° |
| 2026-05-01 14:44 | 41.84877 | -72.08375 | 32810 ft | 538 kts | 58° |
| 2026-05-01 14:45 | 41.90653 | -71.95364 | 32951 ft | 549 kts | 58° |
| 2026-05-01 14:46 | 41.94565 | -71.86526 | 32918 ft | 552 kts | 58° |
| 2026-05-01 14:46 | 42.01163 | -71.73887 | 32918 ft | 550 kts | 51° |
| 2026-05-01 14:47 | 42.05756 | -71.65658 | 32922 ft | 550 kts | 51° |
| 2026-05-01 14:48 | 42.12541 | -71.53324 | 32927 ft | 548 kts | 52° |
| 2026-05-01 14:48 | 42.19288 | -71.40906 | 32917 ft | 547 kts | 52° |
| 2026-05-01 14:49 | 42.28215 | -71.24406 | 32953 ft | 545 kts | 53° |
| 2026-05-01 14:50 | 42.37139 | -71.07832 | 32914 ft | 545 kts | 53° |
| 2026-05-01 14:51 | 42.43810 | -70.95382 | 32937 ft | 545 kts | 53° |
| 2026-05-01 14:52 | 42.50432 | -70.82969 | 32885 ft | 544 kts | 53° |
| 2026-05-01 14:53 | 42.57065 | -70.70485 | 32895 ft | 543 kts | 54° |
| 2026-05-01 14:53 | 42.61473 | -70.62162 | 32893 ft | 543 kts | 54° |
| 2026-05-01 14:54 | 42.65542 | -70.54457 | 32884 ft | 543 kts | 54° |
| 2026-05-01 14:54 | 42.69906 | -70.46169 | 32877 ft | 542 kts | 54° |
| 2026-05-01 14:55 | 42.74285 | -70.37832 | 32892 ft | 542 kts | 54° |
| 2026-05-01 14:55 | 42.78658 | -70.29481 | 32881 ft | 542 kts | 54° |
| 2026-05-01 14:56 | 42.83028 | -70.21115 | 32877 ft | 542 kts | 54° |
| 2026-05-01 14:56 | 42.87386 | -70.12748 | 32905 ft | 541 kts | 55° |
| 2026-05-01 14:57 | 42.91706 | -70.04431 | 32889 ft | 541 kts | 55° |
| 2026-05-01 14:57 | 42.98214 | -69.91854 | 32881 ft | 540 kts | 55° |
| 2026-05-01 14:58 | 43.02541 | -69.83463 | 32872 ft | 540 kts | 55° |
| 2026-05-01 14:58 | 43.06829 | -69.75127 | 32877 ft | 540 kts | 56° |
| 2026-05-01 14:59 | 43.11139 | -69.66721 | 32877 ft | 540 kts | 56° |
| 2026-05-01 14:59 | 43.15445 | -69.58302 | 32888 ft | 539 kts | 56° |
| 2026-05-01 15:00 | 43.21887 | -69.45658 | 32839 ft | 539 kts | 56° |
| 2026-05-01 15:01 | 43.26133 | -69.37296 | 32857 ft | 537 kts | 56° |
| 2026-05-01 15:01 | 43.30392 | -69.28884 | 32864 ft | 536 kts | 56° |
| 2026-05-01 15:02 | 43.34621 | -69.20508 | 32857 ft | 534 kts | 56° |
| 2026-05-01 15:02 | 43.38842 | -69.12122 | 32855 ft | 533 kts | 56° |
| 2026-05-01 15:03 | 43.43016 | -69.03808 | 32856 ft | 531 kts | 57° |
| 2026-05-01 15:03 | 43.47203 | -68.95447 | 32853 ft | 530 kts | 57° |
| 2026-05-01 15:04 | 43.51373 | -68.87089 | 32848 ft | 529 kts | 57° |
| 2026-05-01 15:04 | 43.55525 | -68.78747 | 32848 ft | 527 kts | 57° |
| 2026-05-01 15:05 | 43.59659 | -68.70416 | 32845 ft | 526 kts | 58° |
| 2026-05-01 15:05 | 43.63752 | -68.62147 | 32839 ft | 525 kts | 58° |
| 2026-05-01 15:06 | 43.67860 | -68.53824 | 32838 ft | 524 kts | 58° |
| 2026-05-01 15:06 | 43.71957 | -68.45498 | 32832 ft | 524 kts | 59° |
| 2026-05-01 15:07 | 43.76044 | -68.37169 | 32832 ft | 523 kts | 59° |
| 2026-05-01 15:07 | 43.80097 | -68.28887 | 32833 ft | 523 kts | 59° |
| 2026-05-01 15:08 | 43.84174 | -68.20533 | 32830 ft | 523 kts | 59° |
| 2026-05-01 15:08 | 43.88237 | -68.12186 | 32816 ft | 522 kts | 60° |
| 2026-05-01 15:09 | 43.92289 | -68.03831 | 32822 ft | 522 kts | 60° |
| 2026-05-01 15:09 | 43.96329 | -67.95478 | 32815 ft | 522 kts | 60° |
| 2026-05-01 15:10 | 44.00367 | -67.87109 | 32816 ft | 521 kts | 60° |
| 2026-05-01 15:10 | 44.06383 | -67.74593 | 32813 ft | 521 kts | 60° |
| 2026-05-01 15:11 | 44.61927 | -66.63155 | 32317 ft | 513 kts | 62° |
| 2026-05-01 15:12 | 44.63592 | -66.59468 | 32354 ft | 498 kts | 74° |
| 2026-05-01 15:13 | 44.69627 | -66.31963 | 32752 ft | 513 kts | 71° |
| 2026-05-01 15:14 | 44.76815 | -66.14468 | 32783 ft | 515 kts | 67° |
| 2026-05-01 15:14 | 44.87354 | -65.88621 | 32781 ft | 507 kts | 69° |
| 2026-05-01 15:15 | 44.93981 | -65.71002 | 32718 ft | 502 kts | 80° |
| 2026-05-01 15:15 | 44.94523 | -65.52531 | 32809 ft | 460 kts | 110° |
| 2026-05-01 15:16 | 44.91172 | -65.35342 | 32812 ft | 442 kts | 121° |
| 2026-05-01 15:16 | 44.85989 | -65.19847 | 32766 ft | 434 kts | 123° |
| 2026-05-01 15:18 | 44.74647 | -64.80270 | 33399 ft | 475 kts | 98° |
| 2026-05-01 15:18 | 44.75678 | -64.70915 | 33803 ft | 498 kts | 81° |
| 2026-05-01 15:19 | 44.86374 | -64.44849 | 33742 ft | 518 kts | 65° |
| 2026-05-01 15:19 | 44.98171 | -64.19495 | 33795 ft | 518 kts | 62° |
| 2026-05-01 15:20 | 45.06796 | -64.03001 | 33792 ft | 529 kts | 60° |
| 2026-05-01 15:20 | 45.11176 | -63.94597 | 34059 ft | 530 kts | 60° |
| 2026-05-01 15:20 | 45.15501 | -63.86168 | 34295 ft | 533 kts | 60° |
| 2026-05-01 15:21 | 45.19871 | -63.77581 | 34312 ft | 537 kts | 60° |
| 2026-05-01 15:21 | 45.24172 | -63.69127 | 34699 ft | 534 kts | 60° |
| 2026-05-01 15:21 | 45.28339 | -63.60914 | 34737 ft | 537 kts | 60° |
| 2026-05-01 15:22 | 45.37795 | -63.41124 | 34819 ft | 512 kts | 67° |
| 2026-05-01 15:22 | 45.44284 | -63.23050 | 34903 ft | 511 kts | 69° |
| 2026-05-01 15:23 | 45.51665 | -63.05995 | 34835 ft | 517 kts | 43° |
| 2026-05-01 15:23 | 45.62466 | -62.92732 | 34851 ft | 517 kts | 54° |
| 2026-05-01 15:24 | 45.70880 | -62.76005 | 34825 ft | 518 kts | 61° |
| 2026-05-01 15:24 | 45.79052 | -62.58985 | 34779 ft | 520 kts | 59° |
| 2026-05-01 15:25 | 45.83647 | -62.49589 | 34893 ft | 517 kts | 59° |
| 2026-05-01 15:25 | 45.91917 | -62.32591 | 34865 ft | 518 kts | 59° |
| 2026-05-01 15:25 | 46.08203 | -61.98757 | 34962 ft | 517 kts | 59° |
| 2026-05-01 15:26 | 46.24504 | -61.64480 | 34866 ft | 519 kts | 59° |
| 2026-05-01 15:26 | 46.40738 | -61.29923 | 34817 ft | 519 kts | 59° |
| 2026-05-01 15:27 | 46.56872 | -60.95154 | 34904 ft | 518 kts | 59° |
| 2026-05-01 15:27 | 46.64864 | -60.77765 | 35025 ft | 518 kts | 58° |
| 2026-05-01 15:28 | 46.83562 | -60.36664 | 35091 ft | 518 kts | 58° |